Denton, TX (76201)

3:56 PM CST on February 09, 2016 (GMT -0600)
UNT area | | Change Station
CLOSE
Current Station
Personal Weather Station
Location: Denton, TX
Elevation: 705 ft
Nearby Weather Stations

Elev 705 ft 33.22 °N, 97.15 °W | Updated 26 seconds ago

Clear
Clear
62.1 °F
Feels Like 62.1 °F
N
5.4
Wind Variable Wind from North
Gusts 7.6 mph

Today
High -- | Low -- °F
--% Chance of Precip.
Yesterday
High -- | Low -- °F
Precip. -- in
Pressure 30.22 in
Visibility 10.0 miles
Clouds Clear
Dew Point 20 °F
Humidity 20%
Rainfall 0.00 in
Snow Depth Not available.
7:18 AM 6:07 PM
New Moon, 2% visible
METAR KDTO 092153Z AUTO 35014G19KT 10SM CLR 16/M04 A3022 RMK AO2 SLP234 T01611039
Pressure 30.22 in
Visibility 10.0 miles
Clouds Clear
Dew Point 20 °F
Humidity 20%
Rainfall 0.00 in
Snow Depth Not available.
7:18 AM 6:07 PM
New Moon, 2% visible
METAR KDTO 092153Z AUTO 35014G19KT 10SM CLR 16/M04 A3022 RMK AO2 SLP234 T01611039

10-Day Weather Forecast

Almanac

Astronomy

Feb. 09, 2016 Rise Set
Actual Time
Civil Twilight
Nautical Twilight
Astronomical Twilight
Moon
Length of Visible Light
Length of Day
Tomorrow will be .
, % of the Moon is Illuminated

Today's Extremes

State Highs State Lows

Community

WunderPhotos

Upload Photos

1,891,710 photos uploaded!

WunderBlog® & News

Nearby

Air Quality

  Air Quality AQ Index Pollutant
Not available.

Snow Depth

Station Depth Elevation

Earthquake Activity

City Distance Mag. Time & Date
Minimum magnitude displayed is 2.5.

Coastal Water Temperatures

Place Temperature

Stations

Nearby Weather Stations

Station Location Temp. Windchill Dew Point Humidity Wind Precip. Elev Updated Type
                   

Watches & Warnings

There are currently no watches in effect.